sensor_id;sensor_type;location;lat;lon;timestamp;pressure;altitude;pressure_sealevel;temperature;humidity
56689;BME280;42565;53.342;-1.534;2023-06-22T00:00:55;99262.39;;;20.50;58.63
56689;BME280;42565;53.342;-1.534;2023-06-22T00:03:24;99256.54;;;20.67;57.62
56689;BME280;42565;53.342;-1.534;2023-06-22T00:05:52;99260.26;;;20.61;58.93
56689;BME280;42565;53.342;-1.534;2023-06-22T00:08:20;99253.87;;;20.38;56.96
56689;BME280;42565;53.342;-1.534;2023-06-22T00:10:47;99253.54;;;20.60;57.39
56689;BME280;42565;53.342;-1.534;2023-06-22T00:13:14;99254.04;;;19.96;57.63
56689;BME280;42565;53.342;-1.534;2023-06-22T00:15:42;99248.58;;;21.06;56.52
56689;BME280;42565;53.342;-1.534;2023-06-22T00:18:10;99247.70;;;20.66;58.02
56689;BME280;42565;53.342;-1.534;2023-06-22T00:20:37;99251.09;;;20.00;58.39
56689;BME280;42565;53.342;-1.534;2023-06-22T00:23:06;99251.63;;;20.40;58.79
56689;BME280;42565;53.342;-1.534;2023-06-22T00:25:33;99253.23;;;20.37;58.50
56689;BME280;42565;53.342;-1.534;2023-06-22T00:28:01;99254.09;;;20.43;57.45
56689;BME280;42565;53.342;-1.534;2023-06-22T00:30:28;99257.25;;;20.24;58.91
56689;BME280;42565;53.342;-1.534;2023-06-22T00:32:55;99257.26;;;20.11;58.53
56689;BME280;42565;53.342;-1.534;2023-06-22T00:35:22;99259.51;;;20.06;58.40
56689;BME280;42565;53.342;-1.534;2023-06-22T00:37:50;99261.81;;;20.25;58.57
56689;BME280;42565;53.342;-1.534;2023-06-22T00:40:17;99263.00;;;19.37;59.33
56689;BME280;42565;53.342;-1.534;2023-06-22T00:42:44;99259.46;;;19.86;58.96
56689;BME280;42565;53.342;-1.534;2023-06-22T00:45:11;99258.48;;;19.77;58.84
56689;BME280;42565;53.342;-1.534;2023-06-22T00:47:38;99257.47;;;20.02;59.31
56689;BME280;42565;53.342;-1.534;2023-06-22T00:50:07;99260.90;;;19.71;60.71
56689;BME280;42565;53.342;-1.534;2023-06-22T00:52:34;99259.92;;;19.33;60.03
56689;BME280;42565;53.342;-1.534;2023-06-22T00:55:02;99261.72;;;19.64;59.96
56689;BME280;42565;53.342;-1.534;2023-06-22T00:57:29;99264.24;;;19.34;59.07
56689;BME280;42565;53.342;-1.534;2023-06-22T00:59:57;99261.29;;;19.61;58.91
56689;BME280;42565;53.342;-1.534;2023-06-22T01:02:25;99265.35;;;19.44;58.58
56689;BME280;42565;53.342;-1.534;2023-06-22T01:04:52;99265.37;;;19.15;60.64
56689;BME280;42565;53.342;-1.534;2023-06-22T01:07:23;99267.58;;;18.83;60.55
56689;BME280;42565;53.342;-1.534;2023-06-22T01:09:59;99273.25;;;19.71;59.17
56689;BME280;42565;53.342;-1.534;2023-06-22T01:12:29;99278.63;;;19.63;58.27
56689;BME280;42565;53.342;-1.534;2023-06-22T01:15:04;99283.89;;;19.59;59.69
56689;BME280;42565;53.342;-1.534;2023-06-22T01:17:33;99288.13;;;19.18;59.73
56689;BME280;42565;53.342;-1.534;2023-06-22T01:20:02;99291.25;;;19.66;59.75
56689;BME280;42565;53.342;-1.534;2023-06-22T01:22:31;99291.95;;;19.64;59.76
56689;BME280;42565;53.342;-1.534;2023-06-22T01:25:16;99293.60;;;19.67;59.78
56689;BME280;42565;53.342;-1.534;2023-06-22T01:27:53;99292.85;;;19.77;60.15
56689;BME280;42565;53.342;-1.534;2023-06-22T01:30:24;99290.27;;;19.07;60.21
56689;BME280;42565;53.342;-1.534;2023-06-22T01:32:53;99289.58;;;19.83;59.90
56689;BME280;42565;53.342;-1.534;2023-06-22T01:35:23;99289.97;;;18.17;59.75
56689;BME280;42565;53.342;-1.534;2023-06-22T01:37:51;99292.19;;;18.27;57.90
56689;BME280;42565;53.342;-1.534;2023-06-22T01:40:19;99288.68;;;20.57;54.91
56689;BME280;42565;53.342;-1.534;2023-06-22T01:42:48;99286.99;;;19.89;55.61
56689;BME280;42565;53.342;-1.534;2023-06-22T01:45:17;99292.22;;;20.15;56.98
56689;BME280;42565;53.342;-1.534;2023-06-22T01:47:46;99296.35;;;20.14;58.09
56689;BME280;42565;53.342;-1.534;2023-06-22T01:50:14;99297.73;;;19.80;58.76
56689;BME280;42565;53.342;-1.534;2023-06-22T01:52:41;99297.30;;;19.71;59.66
56689;BME280;42565;53.342;-1.534;2023-06-22T01:55:09;99297.18;;;19.64;59.57
56689;BME280;42565;53.342;-1.534;2023-06-22T01:57:36;99298.26;;;19.96;59.07
56689;BME280;42565;53.342;-1.534;2023-06-22T02:00:07;99299.95;;;19.72;59.69
56689;BME280;42565;53.342;-1.534;2023-06-22T02:02:45;99302.66;;;19.53;60.20
56689;BME280;42565;53.342;-1.534;2023-06-22T02:05:17;99298.72;;;19.24;60.33
56689;BME280;42565;53.342;-1.534;2023-06-22T02:07:49;99299.35;;;18.78;60.12
56689;BME280;42565;53.342;-1.534;2023-06-22T02:10:21;99304.26;;;19.46;56.33
56689;BME280;42565;53.342;-1.534;2023-06-22T02:12:50;99306.55;;;19.29;56.15
56689;BME280;42565;53.342;-1.534;2023-06-22T02:15:20;99305.23;;;19.93;55.36
56689;BME280;42565;53.342;-1.534;2023-06-22T02:17:50;99308.63;;;19.09;55.72
56689;BME280;42565;53.342;-1.534;2023-06-22T02:20:17;99309.61;;;19.29;53.68
56689;BME280;42565;53.342;-1.534;2023-06-22T02:23:26;99306.98;;;20.09;52.71
56689;BME280;42565;53.342;-1.534;2023-06-22T02:26:06;99308.93;;;19.46;52.93
56689;BME280;42565;53.342;-1.534;2023-06-22T02:28:33;99304.92;;;20.83;53.57
56689;BME280;42565;53.342;-1.534;2023-06-22T02:31:00;99304.45;;;20.57;55.36
56689;BME280;42565;53.342;-1.534;2023-06-22T02:33:28;99306.84;;;18.94;58.37
56689;BME280;42565;53.342;-1.534;2023-06-22T02:35:55;99307.81;;;19.33;59.00
56689;BME280;42565;53.342;-1.534;2023-06-22T02:38:31;99312.30;;;18.48;58.04
56689;BME280;42565;53.342;-1.534;2023-06-22T02:41:23;99314.48;;;18.63;56.06
56689;BME280;42565;53.342;-1.534;2023-06-22T02:47:19;99313.06;;;19.42;53.33
56689;BME280;42565;53.342;-1.534;2023-06-22T02:49:55;99313.46;;;19.01;53.60
56689;BME280;42565;53.342;-1.534;2023-06-22T02:52:24;99313.91;;;19.64;52.08
56689;BME280;42565;53.342;-1.534;2023-06-22T02:55:11;99308.23;;;19.95;51.57
56689;BME280;42565;53.342;-1.534;2023-06-22T02:58:05;99306.62;;;20.00;51.16
56689;BME280;42565;53.342;-1.534;2023-06-22T03:00:45;99306.96;;;19.81;52.37
56689;BME280;42565;53.342;-1.534;2023-06-22T03:04:17;99308.02;;;20.09;51.11
56689;BME280;42565;53.342;-1.534;2023-06-22T03:07:31;99310.56;;;20.27;50.39
56689;BME280;42565;53.342;-1.534;2023-06-22T03:10:09;99310.85;;;19.77;50.72
56689;BME280;42565;53.342;-1.534;2023-06-22T03:13:03;99311.76;;;19.38;51.07
56689;BME280;42565;53.342;-1.534;2023-06-22T03:15:31;99313.01;;;19.55;50.38
56689;BME280;42565;53.342;-1.534;2023-06-22T03:17:58;99311.99;;;19.65;50.24
56689;BME280;42565;53.342;-1.534;2023-06-22T03:20:26;99312.33;;;19.91;49.90
56689;BME280;42565;53.342;-1.534;2023-06-22T03:22:53;99313.57;;;19.67;50.45
56689;BME280;42565;53.342;-1.534;2023-06-22T03:25:21;99307.94;;;19.80;50.17
56689;BME280;42565;53.342;-1.534;2023-06-22T03:27:48;99307.03;;;20.36;51.12
56689;BME280;42565;53.342;-1.534;2023-06-22T03:30:16;99307.78;;;20.36;53.69
56689;BME280;42565;53.342;-1.534;2023-06-22T03:32:43;99309.28;;;20.02;55.39
56689;BME280;42565;53.342;-1.534;2023-06-22T03:35:10;99309.93;;;19.85;56.05
56689;BME280;42565;53.342;-1.534;2023-06-22T03:37:37;99306.23;;;19.58;57.89
56689;BME280;42565;53.342;-1.534;2023-06-22T03:40:06;99307.49;;;19.25;57.99
56689;BME280;42565;53.342;-1.534;2023-06-22T03:42:33;99308.22;;;19.48;57.80
56689;BME280;42565;53.342;-1.534;2023-06-22T03:45:00;99309.05;;;19.14;59.34
56689;BME280;42565;53.342;-1.534;2023-06-22T03:47:28;99307.31;;;19.26;58.42
56689;BME280;42565;53.342;-1.534;2023-06-22T03:49:55;99307.12;;;19.67;58.22
56689;BME280;42565;53.342;-1.534;2023-06-22T03:52:23;99309.25;;;19.77;57.51
56689;BME280;42565;53.342;-1.534;2023-06-22T03:54:50;99313.66;;;18.70;57.74
56689;BME280;42565;53.342;-1.534;2023-06-22T03:57:16;99314.78;;;19.36;58.11
56689;BME280;42565;53.342;-1.534;2023-06-22T03:59:43;99319.41;;;18.97;59.13
56689;BME280;42565;53.342;-1.534;2023-06-22T04:02:11;99318.36;;;19.07;59.37
56689;BME280;42565;53.342;-1.534;2023-06-22T04:04:39;99319.95;;;19.06;59.19
56689;BME280;42565;53.342;-1.534;2023-06-22T04:07:06;99319.09;;;19.11;60.25
56689;BME280;42565;53.342;-1.534;2023-06-22T04:09:33;99318.24;;;19.35;59.55
56689;BME280;42565;53.342;-1.534;2023-06-22T04:12:01;99315.25;;;19.16;60.38
56689;BME280;42565;53.342;-1.534;2023-06-22T04:14:28;99311.47;;;18.87;60.62
56689;BME280;42565;53.342;-1.534;2023-06-22T04:16:57;99314.46;;;18.89;59.84
56689;BME280;42565;53.342;-1.534;2023-06-22T04:19:25;99312.65;;;19.01;60.42
56689;BME280;42565;53.342;-1.534;2023-06-22T04:21:52;99309.33;;;18.68;60.94
56689;BME280;42565;53.342;-1.534;2023-06-22T04:24:20;99309.96;;;18.90;60.84
56689;BME280;42565;53.342;-1.534;2023-06-22T04:26:52;99309.69;;;18.25;61.13
56689;BME280;42565;53.342;-1.534;2023-06-22T04:29:18;99312.96;;;18.82;60.79
56689;BME280;42565;53.342;-1.534;2023-06-22T04:31:46;99314.25;;;18.15;61.49
56689;BME280;42565;53.342;-1.534;2023-06-22T04:34:13;99314.23;;;19.01;60.73
56689;BME280;42565;53.342;-1.534;2023-06-22T04:36:41;99313.18;;;19.06;60.55
56689;BME280;42565;53.342;-1.534;2023-06-22T04:39:09;99308.75;;;18.95;60.53
56689;BME280;42565;53.342;-1.534;2023-06-22T04:41:38;99305.36;;;18.94;60.70
56689;BME280;42565;53.342;-1.534;2023-06-22T04:44:05;99306.99;;;19.32;60.04
56689;BME280;42565;53.342;-1.534;2023-06-22T04:46:31;99308.73;;;19.51;60.19
56689;BME280;42565;53.342;-1.534;2023-06-22T04:48:59;99306.96;;;19.40;59.75
56689;BME280;42565;53.342;-1.534;2023-06-22T04:51:26;99302.79;;;19.22;60.02
56689;BME280;42565;53.342;-1.534;2023-06-22T04:53:53;99303.42;;;19.11;60.33
56689;BME280;42565;53.342;-1.534;2023-06-22T04:56:20;99308.14;;;19.37;60.18
56689;BME280;42565;53.342;-1.534;2023-06-22T04:58:46;99308.36;;;18.41;62.42
56689;BME280;42565;53.342;-1.534;2023-06-22T05:01:14;99306.39;;;18.50;63.25
56689;BME280;42565;53.342;-1.534;2023-06-22T05:03:41;99308.09;;;18.84;62.15
56689;BME280;42565;53.342;-1.534;2023-06-22T05:06:08;99311.70;;;18.58;62.82
56689;BME280;42565;53.342;-1.534;2023-06-22T05:08:35;99318.13;;;18.43;63.37
56689;BME280;42565;53.342;-1.534;2023-06-22T05:11:03;99313.93;;;18.77;62.25
56689;BME280;42565;53.342;-1.534;2023-06-22T05:13:31;99316.32;;;18.72;62.12
56689;BME280;42565;53.342;-1.534;2023-06-22T05:15:58;99318.76;;;18.62;63.01
56689;BME280;42565;53.342;-1.534;2023-06-22T05:18:26;99318.98;;;19.35;61.55
56689;BME280;42565;53.342;-1.534;2023-06-22T05:20:53;99320.41;;;18.84;61.60
56689;BME280;42565;53.342;-1.534;2023-06-22T05:23:20;99322.79;;;18.88;61.45
56689;BME280;42565;53.342;-1.534;2023-06-22T05:26:47;99329.90;;;19.20;61.35
56689;BME280;42565;53.342;-1.534;2023-06-22T05:29:14;99326.68;;;18.87;62.68
56689;BME280;42565;53.342;-1.534;2023-06-22T05:31:42;99327.20;;;19.11;62.09
56689;BME280;42565;53.342;-1.534;2023-06-22T05:34:09;99327.21;;;18.90;61.21
56689;BME280;42565;53.342;-1.534;2023-06-22T05:36:36;99327.25;;;19.52;60.82
56689;BME280;42565;53.342;-1.534;2023-06-22T05:39:11;99328.66;;;19.36;61.08
56689;BME280;42565;53.342;-1.534;2023-06-22T05:41:39;99333.36;;;19.60;60.75
56689;BME280;42565;53.342;-1.534;2023-06-22T05:44:06;99335.51;;;20.05;59.52
56689;BME280;42565;53.342;-1.534;2023-06-22T05:46:34;99335.71;;;19.95;60.17
56689;BME280;42565;53.342;-1.534;2023-06-22T05:49:02;99334.36;;;19.45;60.09
56689;BME280;42565;53.342;-1.534;2023-06-22T05:51:29;99336.97;;;20.21;59.28
56689;BME280;42565;53.342;-1.534;2023-06-22T05:53:57;99340.11;;;19.94;57.87
56689;BME280;42565;53.342;-1.534;2023-06-22T05:56:24;99341.23;;;20.57;56.21
56689;BME280;42565;53.342;-1.534;2023-06-22T05:58:52;99342.04;;;19.75;58.03
56689;BME280;42565;53.342;-1.534;2023-06-22T06:01:19;99341.65;;;20.19;59.40
56689;BME280;42565;53.342;-1.534;2023-06-22T06:03:46;99341.17;;;19.80;59.69
56689;BME280;42565;53.342;-1.534;2023-06-22T06:06:13;99343.10;;;20.43;59.95
56689;BME280;42565;53.342;-1.534;2023-06-22T06:08:41;99342.05;;;20.13;60.12
56689;BME280;42565;53.342;-1.534;2023-06-22T06:11:08;99341.37;;;20.13;60.10
56689;BME280;42565;53.342;-1.534;2023-06-22T06:13:36;99339.64;;;19.96;60.68
56689;BME280;42565;53.342;-1.534;2023-06-22T06:16:03;99339.53;;;19.90;60.80
56689;BME280;42565;53.342;-1.534;2023-06-22T06:18:30;99343.89;;;20.36;58.73
56689;BME280;42565;53.342;-1.534;2023-06-22T06:20:57;99347.89;;;19.93;60.41
56689;BME280;42565;53.342;-1.534;2023-06-22T06:23:24;99347.70;;;20.23;60.75
56689;BME280;42565;53.342;-1.534;2023-06-22T06:25:51;99350.41;;;20.53;59.31
56689;BME280;42565;53.342;-1.534;2023-06-22T06:28:18;99354.84;;;20.18;60.08
56689;BME280;42565;53.342;-1.534;2023-06-22T06:30:45;99355.31;;;19.51;61.20
56689;BME280;42565;53.342;-1.534;2023-06-22T06:33:12;99355.06;;;20.10;62.22
56689;BME280;42565;53.342;-1.534;2023-06-22T06:35:40;99358.77;;;20.83;60.77
56689;BME280;42565;53.342;-1.534;2023-06-22T06:38:07;99360.90;;;20.67;61.25
56689;BME280;42565;53.342;-1.534;2023-06-22T06:40:34;99361.37;;;20.67;61.29
56689;BME280;42565;53.342;-1.534;2023-06-22T06:43:01;99360.27;;;20.34;62.13
56689;BME280;42565;53.342;-1.534;2023-06-22T06:45:29;99362.45;;;19.97;63.14
56689;BME280;42565;53.342;-1.534;2023-06-22T06:47:56;99366.12;;;20.55;61.57
56689;BME280;42565;53.342;-1.534;2023-06-22T06:50:24;99369.09;;;21.00;60.48
56689;BME280;42565;53.342;-1.534;2023-06-22T06:52:51;99369.48;;;20.60;60.23
56689;BME280;42565;53.342;-1.534;2023-06-22T06:55:19;99368.72;;;20.46;60.86
56689;BME280;42565;53.342;-1.534;2023-06-22T06:57:46;99373.97;;;19.89;60.79
56689;BME280;42565;53.342;-1.534;2023-06-22T07:00:15;99373.66;;;20.80;60.80
56689;BME280;42565;53.342;-1.534;2023-06-22T07:02:44;99373.47;;;20.89;59.60
56689;BME280;42565;53.342;-1.534;2023-06-22T07:05:12;99373.27;;;21.02;60.78
56689;BME280;42565;53.342;-1.534;2023-06-22T07:07:39;99376.49;;;20.96;60.66
56689;BME280;42565;53.342;-1.534;2023-06-22T07:10:07;99376.46;;;21.25;60.42
56689;BME280;42565;53.342;-1.534;2023-06-22T07:12:35;99374.18;;;20.93;60.59
56689;BME280;42565;53.342;-1.534;2023-06-22T07:15:04;99370.67;;;21.03;58.34
56689;BME280;42565;53.342;-1.534;2023-06-22T07:17:31;99375.26;;;21.06;59.91
56689;BME280;42565;53.342;-1.534;2023-06-22T07:19:58;99378.52;;;20.64;60.89
56689;BME280;42565;53.342;-1.534;2023-06-22T07:22:25;99381.32;;;20.99;59.78
56689;BME280;42565;53.342;-1.534;2023-06-22T07:24:53;99382.20;;;20.14;61.70
56689;BME280;42565;53.342;-1.534;2023-06-22T07:27:20;99384.66;;;20.67;61.17
56689;BME280;42565;53.342;-1.534;2023-06-22T07:29:47;99388.37;;;20.20;60.49
56689;BME280;42565;53.342;-1.534;2023-06-22T07:32:15;99386.63;;;20.66;60.54
56689;BME280;42565;53.342;-1.534;2023-06-22T07:34:43;99386.17;;;20.01;62.32
56689;BME280;42565;53.342;-1.534;2023-06-22T07:37:10;99385.53;;;20.00;62.95
56689;BME280;42565;53.342;-1.534;2023-06-22T07:39:37;99384.81;;;20.30;62.61
56689;BME280;42565;53.342;-1.534;2023-06-22T07:42:05;99382.62;;;20.54;61.56
56689;BME280;42565;53.342;-1.534;2023-06-22T07:44:32;99385.49;;;20.74;60.63
56689;BME280;42565;53.342;-1.534;2023-06-22T07:47:00;99384.21;;;20.72;60.41
56689;BME280;42565;53.342;-1.534;2023-06-22T07:49:28;99383.81;;;20.15;63.39
56689;BME280;42565;53.342;-1.534;2023-06-22T07:51:55;99387.87;;;20.48;62.56
56689;BME280;42565;53.342;-1.534;2023-06-22T07:54:22;99385.52;;;20.41;62.18
56689;BME280;42565;53.342;-1.534;2023-06-22T07:56:50;99381.12;;;20.38;59.91
56689;BME280;42565;53.342;-1.534;2023-06-22T07:59:17;99380.22;;;20.91;60.42
56689;BME280;42565;53.342;-1.534;2023-06-22T08:01:45;99381.09;;;20.77;58.25
56689;BME280;42565;53.342;-1.534;2023-06-22T08:04:12;99381.91;;;20.71;60.89
56689;BME280;42565;53.342;-1.534;2023-06-22T08:06:39;99381.06;;;20.63;60.72
56689;BME280;42565;53.342;-1.534;2023-06-22T08:09:06;99381.54;;;20.64;60.46
56689;BME280;42565;53.342;-1.534;2023-06-22T08:11:33;99386.50;;;21.18;58.64
56689;BME280;42565;53.342;-1.534;2023-06-22T08:14:01;99386.99;;;21.25;60.06
56689;BME280;42565;53.342;-1.534;2023-06-22T08:16:28;99383.11;;;21.42;55.69
56689;BME280;42565;53.342;-1.534;2023-06-22T08:18:56;99380.62;;;21.49;56.40
56689;BME280;42565;53.342;-1.534;2023-06-22T08:21:23;99382.69;;;21.86;55.12
56689;BME280;42565;53.342;-1.534;2023-06-22T08:23:51;99386.34;;;21.78;54.39
56689;BME280;42565;53.342;-1.534;2023-06-22T08:26:18;99388.29;;;21.87;55.20
56689;BME280;42565;53.342;-1.534;2023-06-22T08:28:45;99386.24;;;21.75;51.41
56689;BME280;42565;53.342;-1.534;2023-06-22T08:31:13;99382.48;;;22.84;49.95
56689;BME280;42565;53.342;-1.534;2023-06-22T08:33:41;99380.86;;;23.23;51.08
56689;BME280;42565;53.342;-1.534;2023-06-22T08:36:08;99379.35;;;22.67;50.44
56689;BME280;42565;53.342;-1.534;2023-06-22T08:38:35;99382.91;;;23.48;48.39
56689;BME280;42565;53.342;-1.534;2023-06-22T08:41:03;99382.50;;;23.30;49.11
56689;BME280;42565;53.342;-1.534;2023-06-22T08:43:29;99381.79;;;23.44;47.43
56689;BME280;42565;53.342;-1.534;2023-06-22T08:45:57;99380.63;;;23.25;47.04
56689;BME280;42565;53.342;-1.534;2023-06-22T08:48:23;99382.01;;;23.37;47.59
56689;BME280;42565;53.342;-1.534;2023-06-22T08:50:51;99385.41;;;23.14;46.47
56689;BME280;42565;53.342;-1.534;2023-06-22T08:53:19;99386.22;;;23.01;47.95
56689;BME280;42565;53.342;-1.534;2023-06-22T08:55:46;99382.61;;;22.67;47.24
56689;BME280;42565;53.342;-1.534;2023-06-22T08:58:13;99381.89;;;23.47;46.93
56689;BME280;42565;53.342;-1.534;2023-06-22T09:00:41;99378.17;;;23.39;46.74
56689;BME280;42565;53.342;-1.534;2023-06-22T09:03:08;99380.60;;;24.38;46.68
56689;BME280;42565;53.342;-1.534;2023-06-22T09:05:34;99380.62;;;24.49;45.52
56689;BME280;42565;53.342;-1.534;2023-06-22T09:08:01;99380.63;;;24.92;45.31
56689;BME280;42565;53.342;-1.534;2023-06-22T09:10:28;99380.60;;;24.87;43.43
56689;BME280;42565;53.342;-1.534;2023-06-22T09:12:57;99377.50;;;25.42;41.45
56689;BME280;42565;53.342;-1.534;2023-06-22T09:15:24;99376.47;;;25.66;42.73
56689;BME280;42565;53.342;-1.534;2023-06-22T09:17:51;99379.79;;;25.64;42.59
56689;BME280;42565;53.342;-1.534;2023-06-22T09:20:19;99386.85;;;25.62;41.40
56689;BME280;42565;53.342;-1.534;2023-06-22T09:22:46;99388.53;;;25.07;41.79
56689;BME280;42565;53.342;-1.534;2023-06-22T09:25:13;99392.49;;;25.38;40.84
56689;BME280;42565;53.342;-1.534;2023-06-22T09:27:41;99389.59;;;25.20;41.37
56689;BME280;42565;53.342;-1.534;2023-06-22T09:30:09;99389.18;;;24.92;41.31
56689;BME280;42565;53.342;-1.534;2023-06-22T09:32:36;99385.81;;;24.22;42.58
56689;BME280;42565;53.342;-1.534;2023-06-22T09:35:05;99385.30;;;23.47;45.48
56689;BME280;42565;53.342;-1.534;2023-06-22T09:37:32;99386.90;;;24.69;45.25
56689;BME280;42565;53.342;-1.534;2023-06-22T09:39:59;99384.17;;;24.55;45.56
56689;BME280;42565;53.342;-1.534;2023-06-22T09:42:27;99386.75;;;24.43;44.72
56689;BME280;42565;53.342;-1.534;2023-06-22T09:44:54;99389.04;;;24.02;46.16
56689;BME280;42565;53.342;-1.534;2023-06-22T09:47:22;99392.32;;;25.03;44.30
56689;BME280;42565;53.342;-1.534;2023-06-22T09:49:49;99395.75;;;22.93;46.36
56689;BME280;42565;53.342;-1.534;2023-06-22T09:52:17;99393.11;;;23.87;46.84
56689;BME280;42565;53.342;-1.534;2023-06-22T09:54:44;99397.02;;;23.49;46.50
56689;BME280;42565;53.342;-1.534;2023-06-22T09:57:11;99397.87;;;24.86;46.51
56689;BME280;42565;53.342;-1.534;2023-06-22T09:59:39;99400.88;;;24.15;44.02
56689;BME280;42565;53.342;-1.534;2023-06-22T10:02:06;99397.88;;;23.88;44.68
56689;BME280;42565;53.342;-1.534;2023-06-22T10:04:34;99401.52;;;24.72;44.34
56689;BME280;42565;53.342;-1.534;2023-06-22T10:07:01;99403.01;;;25.26;44.57
56689;BME280;42565;53.342;-1.534;2023-06-22T10:09:28;99402.05;;;24.89;44.28
56689;BME280;42565;53.342;-1.534;2023-06-22T10:11:56;99401.94;;;24.14;46.48
56689;BME280;42565;53.342;-1.534;2023-06-22T10:14:23;99403.02;;;23.94;46.36
56689;BME280;42565;53.342;-1.534;2023-06-22T10:16:52;99402.30;;;24.32;45.30
56689;BME280;42565;53.342;-1.534;2023-06-22T10:19:19;99405.64;;;25.50;43.87
56689;BME280;42565;53.342;-1.534;2023-06-22T10:21:47;99402.97;;;24.57;42.39
56689;BME280;42565;53.342;-1.534;2023-06-22T10:24:14;99405.73;;;24.37;45.29
56689;BME280;42565;53.342;-1.534;2023-06-22T10:26:41;99409.85;;;24.36;45.04
56689;BME280;42565;53.342;-1.534;2023-06-22T10:29:09;99410.02;;;23.29;44.79
56689;BME280;42565;53.342;-1.534;2023-06-22T10:31:35;99410.53;;;23.96;45.23
56689;BME280;42565;53.342;-1.534;2023-06-22T10:34:03;99414.01;;;24.19;45.68
56689;BME280;42565;53.342;-1.534;2023-06-22T10:36:30;99413.02;;;24.90;45.41
56689;BME280;42565;53.342;-1.534;2023-06-22T10:38:58;99412.93;;;24.65;44.17
56689;BME280;42565;53.342;-1.534;2023-06-22T10:41:25;99414.04;;;24.72;45.48
56689;BME280;42565;53.342;-1.534;2023-06-22T10:43:53;99415.74;;;23.94;44.45
56689;BME280;42565;53.342;-1.534;2023-06-22T10:46:20;99416.00;;;24.15;44.57
56689;BME280;42565;53.342;-1.534;2023-06-22T10:48:48;99423.80;;;23.10;47.19
56689;BME280;42565;53.342;-1.534;2023-06-22T10:51:15;99421.55;;;23.91;46.60
56689;BME280;42565;53.342;-1.534;2023-06-22T10:53:42;99421.04;;;23.60;46.58
56689;BME280;42565;53.342;-1.534;2023-06-22T10:56:10;99420.44;;;24.04;45.77
56689;BME280;42565;53.342;-1.534;2023-06-22T10:58:37;99424.16;;;23.62;47.19
56689;BME280;42565;53.342;-1.534;2023-06-22T11:01:04;99424.84;;;23.01;48.01
56689;BME280;42565;53.342;-1.534;2023-06-22T11:03:30;99424.48;;;22.91;49.50
56689;BME280;42565;53.342;-1.534;2023-06-22T11:05:58;99424.32;;;23.69;49.63
56689;BME280;42565;53.342;-1.534;2023-06-22T11:08:24;99427.80;;;23.54;48.96
56689;BME280;42565;53.342;-1.534;2023-06-22T11:10:52;99428.20;;;23.21;48.09
56689;BME280;42565;53.342;-1.534;2023-06-22T11:13:20;99428.52;;;23.88;49.27
56689;BME280;42565;53.342;-1.534;2023-06-22T11:15:46;99429.33;;;23.37;48.33
56689;BME280;42565;53.342;-1.534;2023-06-22T11:18:13;99430.44;;;23.19;50.65
56689;BME280;42565;53.342;-1.534;2023-06-22T11:20:40;99434.73;;;23.03;51.91
56689;BME280;42565;53.342;-1.534;2023-06-22T11:23:08;99435.55;;;23.15;51.95
56689;BME280;42565;53.342;-1.534;2023-06-22T11:25:36;99434.08;;;22.69;53.69
56689;BME280;42565;53.342;-1.534;2023-06-22T11:28:04;99431.10;;;23.27;52.01
56689;BME280;42565;53.342;-1.534;2023-06-22T11:30:31;99432.81;;;22.96;50.85
56689;BME280;42565;53.342;-1.534;2023-06-22T11:32:58;99436.12;;;22.81;50.79
56689;BME280;42565;53.342;-1.534;2023-06-22T11:35:26;99435.45;;;22.98;51.84
56689;BME280;42565;53.342;-1.534;2023-06-22T11:37:53;99432.20;;;22.82;50.37
56689;BME280;42565;53.342;-1.534;2023-06-22T11:40:20;99435.49;;;23.86;49.87
56689;BME280;42565;53.342;-1.534;2023-06-22T11:42:46;99432.77;;;24.00;47.87
56689;BME280;42565;53.342;-1.534;2023-06-22T11:45:14;99426.32;;;24.27;49.43
56689;BME280;42565;53.342;-1.534;2023-06-22T11:47:41;99421.85;;;24.29;48.00
56689;BME280;42565;53.342;-1.534;2023-06-22T11:50:09;99420.57;;;24.19;49.32
56689;BME280;42565;53.342;-1.534;2023-06-22T11:52:36;99416.02;;;24.52;48.15
56689;BME280;42565;53.342;-1.534;2023-06-22T11:55:04;99417.74;;;24.27;47.74
56689;BME280;42565;53.342;-1.534;2023-06-22T11:57:33;99414.89;;;25.16;47.51
56689;BME280;42565;53.342;-1.534;2023-06-22T12:00:02;99409.83;;;24.75;47.86
56689;BME280;42565;53.342;-1.534;2023-06-22T12:02:29;99411.44;;;25.49;47.13
56689;BME280;42565;53.342;-1.534;2023-06-22T12:04:57;99412.42;;;25.41;48.69
56689;BME280;42565;53.342;-1.534;2023-06-22T12:07:24;99412.59;;;26.54;46.04
56689;BME280;42565;53.342;-1.534;2023-06-22T12:09:52;99414.16;;;26.74;45.80
56689;BME280;42565;53.342;-1.534;2023-06-22T12:12:19;99410.58;;;27.70;44.14
56689;BME280;42565;53.342;-1.534;2023-06-22T12:14:47;99405.82;;;27.63;42.58
56689;BME280;42565;53.342;-1.534;2023-06-22T12:17:14;99401.21;;;27.60;41.87
56689;BME280;42565;53.342;-1.534;2023-06-22T12:19:41;99399.97;;;27.56;42.81
56689;BME280;42565;53.342;-1.534;2023-06-22T12:22:08;99399.54;;;27.61;43.07
56689;BME280;42565;53.342;-1.534;2023-06-22T12:24:35;99402.23;;;27.67;43.37
56689;BME280;42565;53.342;-1.534;2023-06-22T12:27:03;99402.32;;;28.31;40.30
56689;BME280;42565;53.342;-1.534;2023-06-22T12:29:30;99401.71;;;28.28;39.04
56689;BME280;42565;53.342;-1.534;2023-06-22T12:31:58;99397.14;;;28.67;37.03
56689;BME280;42565;53.342;-1.534;2023-06-22T12:34:25;99398.48;;;29.17;36.74
56689;BME280;42565;53.342;-1.534;2023-06-22T12:36:53;99399.93;;;28.50;37.17
56689;BME280;42565;53.342;-1.534;2023-06-22T12:39:20;99403.44;;;28.20;37.23
56689;BME280;42565;53.342;-1.534;2023-06-22T12:41:48;99401.09;;;28.21;37.42
56689;BME280;42565;53.342;-1.534;2023-06-22T12:44:15;99399.62;;;29.09;34.71
56689;BME280;42565;53.342;-1.534;2023-06-22T12:46:42;99398.14;;;28.24;34.85
56689;BME280;42565;53.342;-1.534;2023-06-22T12:49:09;99396.31;;;28.42;35.18
56689;BME280;42565;53.342;-1.534;2023-06-22T12:51:40;99393.02;;;29.35;35.14
56689;BME280;42565;53.342;-1.534;2023-06-22T12:54:07;99393.76;;;29.26;35.06
56689;BME280;42565;53.342;-1.534;2023-06-22T12:56:35;99398.29;;;28.51;36.12
56689;BME280;42565;53.342;-1.534;2023-06-22T12:59:02;99398.33;;;27.67;36.76
56689;BME280;42565;53.342;-1.534;2023-06-22T13:01:29;99396.01;;;27.97;37.02